Nave Celeste — VRZH4 — position and weather

sailwx.info

Track history (hours):
 
Tides and Currents Weather Stations Pressure Air Temp Water Temp Dewpoint Dewpoint Depression Visibility Wind Speed Wind Dir Waves Ship Positions

Nave Celeste

Last reported at 2015-Mar-14 22:13 UTC. Time now 2015-Apr-01 01:12 UTC.
Position N 32°07' W 117°36'.
Warning: this ship's position is 17 days out of date.

Length 333 m; draft 11.1 m.

Type: Ship (hazmat cat A). MMSI: 477974000.

Date/timePositionNaut miles runAvg speedWind from/ knotsBaromVisibWave heightAir tempDewpointWater temp
2015-Mar-14 22:13N 32°07' W 117°36'911.2
2015-Mar-14 21:27N 32°16' W 117°39'1011.5
2015-Mar-14 20:33N 32°25' W 117°43'1211.8
2015-Mar-14 19:33N 32°36' W 117°48'1111.5
2015-Mar-14 18:33N 32°47' W 117°52'1111.2
2015-Mar-14 17:33N 32°58' W 117°57'1110.8
2015-Mar-14 16:33N 33°08' W 118°01'1111.3
2015-Mar-14 15:33N 33°18' W 118°06'1111.2
2015-Mar-14 14:33N 33°29' W 118°10'1410.2
2015-Mar-14 13:09N 33°43' W 118°11'1 0.6
2015-Mar-14 11:33N 33°44' W 118°10'0 0.0
2015-Mar-14 10:33N 33°44' W 118°10'0 0.0
2015-Mar-14 09:18N 33°44' W 118°10'0 0.1
2015-Mar-14 08:33N 33°44' W 118°10'0 0.1
2015-Mar-14 07:24N 33°44' W 118°10'0 0.1
2015-Mar-14 06:33N 33°44' W 118°10'0 0.1
2015-Mar-14 05:33N 33°44' W 118°10'0 0.1
2015-Mar-14 04:33N 33°44' W 118°10'0 0.1
2015-Mar-14 03:33N 33°44' W 118°10'0 0.1
2015-Mar-14 02:24N 33°44' W 118°10'0 0.1
2015-Mar-14 01:30N 33°44' W 118°10'0 0.1
2015-Mar-14 00:33N 33°44' W 118°10'0 0.0
2015-Mar-13 23:30N 33°44' W 118°10'0 0.1
2015-Mar-13 22:30N 33°44' W 118°10'0 0.0
2015-Mar-13 21:09N 33°44' W 118°10'0 0.0
2015-Mar-13 20:27N 33°44' W 118°10'0 0.1
2015-Mar-13 19:21N 33°44' W 118°10'0 0.1
2015-Mar-13 18:33N 33°44' W 118°10'0 0.0
2015-Mar-13 16:27N 33°44' W 118°10'0 0.0
2015-Mar-13 14:30N 33°44' W 118°10'0 0.0
2015-Mar-13 12:06N 33°44' W 118°10'0 0.1
2015-Mar-13 10:21N 33°44' W 118°10'0 0.0
2015-Mar-13 09:33N 33°44' W 118°10'0 0.1
2015-Mar-13 08:33N 33°44' W 118°10'5 4.7
2015-Mar-13 07:33N 33°39' W 118°10'4 4.3
2015-Mar-13 06:33N 33°35' W 118°09'9 8.7
2015-Mar-13 05:33N 33°27' W 118°06'1111.1
2015-Mar-13 04:33N 33°17' W 118°00'6 6.0
2015-Mar-13 03:33N 33°12' W 117°56'1 0.7
2015-Mar-13 02:33N 33°11' W 117°57'6 6.3
2015-Mar-13 01:34N 33°06' W 117°54'2 2.1
2015-Mar-13 00:33N 33°06' W 117°51'0 0.3
2015-Mar-12 23:33N 33°06' W 117°51'1 1.0
2015-Mar-12 22:33N 33°05' W 117°50'1 0.8
2015-Mar-12 21:33N 33°05' W 117°49'1 1.2
2015-Mar-12 20:33N 33°05' W 117°48'1 0.7
2015-Mar-12 19:33N 33°04' W 117°47'1 0.9
2015-Mar-12 18:33N 33°04' W 117°46'1 0.8
2015-Mar-12 17:33N 33°03' W 117°46'1 0.8
2015-Mar-12 16:33N 33°02' W 117°45'1 0.9
2015-Mar-12 15:33N 33°01' W 117°45'1 1.0
2015-Mar-12 14:33N 33°01' W 117°44'1 0.8
2015-Mar-12 13:33N 32°60' W 117°44'0 0.3
2015-Mar-12 12:33N 32°59' W 117°44'1 0.7
2015-Mar-12 11:33N 32°59' W 117°45'1 0.7
2015-Mar-12 10:33N 32°59' W 117°46'1 0.6
2015-Mar-12 09:33N 32°58' W 117°46'1 0.7
2015-Mar-12 08:33N 32°58' W 117°47'1 0.8
2015-Mar-12 07:33N 32°58' W 117°48'1 1.0
2015-Mar-12 06:33N 32°59' W 117°48'1 1.2
2015-Mar-12 05:33N 32°60' W 117°49'2 1.6
2015-Mar-12 04:33N 33°01' W 117°50'4 3.9
2015-Mar-12 03:33N 33°05' W 117°52'4 4.2
2015-Mar-12 02:33N 33°08' W 117°55'1 1.4
2015-Mar-12 01:33N 33°08' W 117°57'5 5.0
2015-Mar-12 00:33N 33°04' W 117°52'9 9.1
2015-Mar-11 23:33N 33°03' W 117°42'1 1.1
2015-Mar-11 22:33N 33°02' W 117°41'0 0.4
2015-Mar-11 21:33N 33°02' W 117°41'0 0.3
2015-Mar-11 20:33N 33°03' W 117°41'0 0.2
2015-Mar-11 19:33N 33°03' W 117°41'0 0.3
2015-Mar-11 18:33N 33°03' W 117°42'0 0.3
2015-Mar-11 17:33N 33°03' W 117°42'0 0.3
2015-Mar-11 16:33N 33°03' W 117°42'0 0.4
2015-Mar-11 15:33N 33°03' W 117°43'0 0.3
2015-Mar-11 14:33N 33°04' W 117°43'0 0.4
2015-Mar-11 13:33N 33°04' W 117°43'0 0.4
2015-Mar-11 12:33N 33°04' W 117°44'0 0.4
2015-Mar-11 11:33N 33°04' W 117°44'0 0.4
2015-Mar-11 10:33N 33°04' W 117°45'0 0.4
2015-Mar-11 09:33N 33°04' W 117°45'0 0.3
2015-Mar-11 08:33N 33°04' W 117°45'0 0.3
2015-Mar-11 07:33N 33°04' W 117°46'0 0.3
2015-Mar-11 06:33N 33°04' W 117°46'0 0.3
2015-Mar-11 05:33N 33°04' W 117°46'0 0.3
2015-Mar-11 04:33N 33°04' W 117°47'0 0.4
2015-Mar-11 03:33N 33°04' W 117°47'0 0.4
2015-Mar-11 02:33N 33°04' W 117°48'1 0.6
2015-Mar-11 01:33N 33°04' W 117°48'1 0.7
2015-Mar-11 00:33N 33°04' W 117°49'1 0.8
2015-Mar-10 23:33N 33°04' W 117°50'1 0.9
2015-Mar-10 22:33N 33°05' W 117°51'1 0.9
2015-Mar-10 21:33N 33°05' W 117°52'1 0.9
2015-Mar-10 20:33N 33°05' W 117°53'1 0.8
2015-Mar-10 19:33N 33°05' W 117°54'1 0.6
2015-Mar-10 18:33N 33°05' W 117°55'0 0.4
2015-Mar-10 17:33N 33°05' W 117°55'0 0.2
2015-Mar-10 16:33N 33°05' W 117°56'0 0.2
2015-Mar-10 15:33N 33°05' W 117°56'0 0.2
2015-Mar-10 14:32N 33°05' W 117°56'0 0.3
2015-Mar-10 13:33N 33°05' W 117°56'0 0.3
2015-Mar-10 12:33N 33°06' W 117°56'0 0.4
2015-Mar-10 11:33N 33°06' W 117°57'1 0.5
2015-Mar-10 10:33N 33°06' W 117°57'1 0.6
2015-Mar-10 09:33N 33°07' W 117°57'1 0.7
2015-Mar-10 08:32N 33°07' W 117°58'1 0.6
2015-Mar-10 07:33N 33°07' W 117°59'1 0.6
2015-Mar-10 06:33N 33°08' W 117°59'0 0.5
2015-Mar-10 05:33N 33°08' W 117°60'0 0.3
2015-Mar-10 04:33N 33°08' W 117°60'1 1.5
2015-Mar-10 03:33N 33°08' W 117°58'7 7.2
2015-Mar-10 02:33N 33°08' W 117°50'3 2.6
2015-Mar-10 01:33N 33°08' W 117°46'1 0.7
2015-Mar-10 00:33N 33°09' W 117°47'1 0.8
2015-Mar-09 23:33N 33°09' W 117°48'1 0.9
2015-Mar-09 22:33N 33°09' W 117°49'1 0.9
2015-Mar-09 21:33N 33°09' W 117°50'1 1.0
2015-Mar-09 20:33N 33°09' W 117°51'1 0.9
2015-Mar-09 19:33N 33°09' W 117°52'1 0.8
2015-Mar-09 18:33N 33°09' W 117°53'1 0.8
2015-Mar-09 17:33N 33°09' W 117°54'1 0.6
2015-Mar-09 16:33N 33°09' W 117°55'1 0.6
2015-Mar-09 15:33N 33°09' W 117°56'0 0.5
2015-Mar-09 14:33N 33°09' W 117°56'0 0.3
2015-Mar-09 13:31N 33°09' W 117°56'1 1.0
2015-Mar-09 12:33N 33°09' W 117°55'4 4.1
2015-Mar-09 11:33N 33°06' W 117°52'1 1.3
2015-Mar-09 10:33N 33°05' W 117°51'1 1.0
2015-Mar-09 09:33N 33°04' W 117°51'1 1.4
2015-Mar-09 08:33N 33°03' W 117°50'1 1.4
2015-Mar-09 07:33N 33°02' W 117°50'1 1.4
2015-Mar-09 06:33N 33°00' W 117°50'1 0.9
2015-Mar-09 05:33N 32°59' W 117°49'1 1.2
2015-Mar-09 04:33N 32°58' W 117°48'1 1.0
2015-Mar-09 03:33N 32°58' W 117°48'0 0.3
2015-Mar-09 02:33N 32°57' W 117°48'1 0.6
2015-Mar-09 01:33N 32°57' W 117°48'1 0.7
2015-Mar-09 00:33N 32°57' W 117°49'1 1.1
2015-Mar-08 23:33N 32°58' W 117°50'1 1.3
2015-Mar-08 22:33N 32°59' W 117°50'2 2.0
2015-Mar-08 21:32N 33°01' W 117°52'3 3.6
2015-Mar-08 20:33N 33°04' W 117°54'4 4.4
2015-Mar-08 19:33N 33°08' W 117°57'1 1.1
2015-Mar-08 18:33N 33°09' W 117°57'4 4.3
2015-Mar-08 17:33N 33°06' W 117°52'1 1.3
2015-Mar-08 16:33N 33°05' W 117°52'1 1.1
2015-Mar-08 15:33N 33°04' W 117°51'1 1.2
2015-Mar-08 14:33N 33°03' W 117°51'1 0.9
2015-Mar-08 13:33N 33°02' W 117°50'1 1.0
2015-Mar-08 12:33N 33°01' W 117°50'1 1.0
2015-Mar-08 11:33N 33°00' W 117°50'1 0.9
2015-Mar-08 10:33N 32°59' W 117°49'1 0.9
2015-Mar-08 09:33N 32°59' W 117°49'1 1.0
2015-Mar-08 08:33N 32°58' W 117°49'1 0.9
2015-Mar-08 07:33N 32°57' W 117°49'1 0.6
2015-Mar-08 06:33N 32°57' W 117°50'1 0.8
2015-Mar-08 05:33N 32°58' W 117°50'1 0.9
2015-Mar-08 04:33N 32°59' W 117°50'1 1.2
2015-Mar-08 03:33N 33°00' W 117°50'1 1.1
2015-Mar-08 02:33N 33°01' W 117°51'1 1.3
2015-Mar-08 01:33N 33°02' W 117°51'3 3.5
2015-Mar-08 00:33N 33°06' W 117°52'4 4.2
2015-Mar-07 23:33N 33°09' W 117°54'1 1.5
2015-Mar-07 22:33N 33°10' W 117°56'1 0.7
2015-Mar-07 21:33N 33°10' W 117°57'1 1.4
2015-Mar-07 20:33N 33°09' W 117°58'6 5.8
2015-Mar-07 19:33N 33°03' W 117°56'1212.3
2015-Mar-07 18:33N 32°51' W 117°52'1313.3
2015-Mar-07 17:33N 32°39' W 117°48'1312.8
2015-Mar-07 16:33N 32°26' W 117°47'1313.3
2015-Mar-07 15:33N 32°14' W 117°53'1312.7
2015-Mar-07 14:33N 32°02' W 117°59'1111.2
2015-Mar-07 13:33N 31°52' W 118°04'1212.2
2015-Mar-07 12:33N 31°40' W 118°10'1413.7
2015-Mar-07 11:33N 31°28' W 118°17'1413.6
2015-Mar-07 10:33N 31°15' W 118°23'1413.5
2015-Mar-07 09:33N 31°03' W 118°29'1413.4
2015-Mar-07 08:31N 30°56' W 118°43'4314.3
2015-Mar-07 05:29N 30°47' W 119°32'  
Track history (hours):
 
Tides and Currents Weather Stations Pressure Air Temp Water Temp Dewpoint Dewpoint Depression Visibility Wind Speed Wind Dir Waves Ship Positions

Nave Celeste

Last reported at 2015-Mar-14 22:13 UTC. Time now 2015-Apr-01 01:12 UTC.
Position N 32°07' W 117°36'.
Warning: this ship's position is 17 days out of date.

Length 333 m; draft 11.1 m.

Type: Ship (hazmat cat A). MMSI: 477974000.

Date/timePositionNaut miles runAvg speedWind from/ knotsBaromVisibWave heightAir tempDewpointWater temp
2015-Mar-14 22:13N 32°07' W 117°36'911.2
2015-Mar-14 21:27N 32°16' W 117°39'1011.5
2015-Mar-14 20:33N 32°25' W 117°43'1211.8
2015-Mar-14 19:33N 32°36' W 117°48'1111.5
2015-Mar-14 18:33N 32°47' W 117°52'1111.2
2015-Mar-14 17:33N 32°58' W 117°57'1110.8
2015-Mar-14 16:33N 33°08' W 118°01'1111.3
2015-Mar-14 15:33N 33°18' W 118°06'1111.2
2015-Mar-14 14:33N 33°29' W 118°10'1410.2
2015-Mar-14 13:09N 33°43' W 118°11'1 0.6
2015-Mar-14 11:33N 33°44' W 118°10'0 0.0
2015-Mar-14 10:33N 33°44' W 118°10'0 0.0
2015-Mar-14 09:18N 33°44' W 118°10'0 0.1
2015-Mar-14 08:33N 33°44' W 118°10'0 0.1
2015-Mar-14 07:24N 33°44' W 118°10'0 0.1
2015-Mar-14 06:33N 33°44' W 118°10'0 0.1
2015-Mar-14 05:33N 33°44' W 118°10'0 0.1
2015-Mar-14 04:33N 33°44' W 118°10'0 0.1
2015-Mar-14 03:33N 33°44' W 118°10'0 0.1
2015-Mar-14 02:24N 33°44' W 118°10'0 0.1
2015-Mar-14 01:30N 33°44' W 118°10'0 0.1
2015-Mar-14 00:33N 33°44' W 118°10'0 0.0
2015-Mar-13 23:30N 33°44' W 118°10'0 0.1
2015-Mar-13 22:30N 33°44' W 118°10'0 0.0
2015-Mar-13 21:09N 33°44' W 118°10'0 0.0
2015-Mar-13 20:27N 33°44' W 118°10'0 0.1
2015-Mar-13 19:21N 33°44' W 118°10'0 0.1
2015-Mar-13 18:33N 33°44' W 118°10'0 0.0
2015-Mar-13 16:27N 33°44' W 118°10'0 0.0
2015-Mar-13 14:30N 33°44' W 118°10'0 0.0
2015-Mar-13 12:06N 33°44' W 118°10'0 0.1
2015-Mar-13 10:21N 33°44' W 118°10'0 0.0
2015-Mar-13 09:33N 33°44' W 118°10'0 0.1
2015-Mar-13 08:33N 33°44' W 118°10'5 4.7
2015-Mar-13 07:33N 33°39' W 118°10'4 4.3
2015-Mar-13 06:33N 33°35' W 118°09'9 8.7
2015-Mar-13 05:33N 33°27' W 118°06'1111.1
2015-Mar-13 04:33N 33°17' W 118°00'6 6.0
2015-Mar-13 03:33N 33°12' W 117°56'1 0.7
2015-Mar-13 02:33N 33°11' W 117°57'6 6.3
2015-Mar-13 01:34N 33°06' W 117°54'2 2.1
2015-Mar-13 00:33N 33°06' W 117°51'0 0.3
2015-Mar-12 23:33N 33°06' W 117°51'1 1.0
2015-Mar-12 22:33N 33°05' W 117°50'1 0.8
2015-Mar-12 21:33N 33°05' W 117°49'1 1.2
2015-Mar-12 20:33N 33°05' W 117°48'1 0.7
2015-Mar-12 19:33N 33°04' W 117°47'1 0.9
2015-Mar-12 18:33N 33°04' W 117°46'1 0.8
2015-Mar-12 17:33N 33°03' W 117°46'1 0.8
2015-Mar-12 16:33N 33°02' W 117°45'1 0.9
2015-Mar-12 15:33N 33°01' W 117°45'1 1.0
2015-Mar-12 14:33N 33°01' W 117°44'1 0.8
2015-Mar-12 13:33N 32°60' W 117°44'0 0.3
2015-Mar-12 12:33N 32°59' W 117°44'1 0.7
2015-Mar-12 11:33N 32°59' W 117°45'1 0.7
2015-Mar-12 10:33N 32°59' W 117°46'1 0.6
2015-Mar-12 09:33N 32°58' W 117°46'1 0.7
2015-Mar-12 08:33N 32°58' W 117°47'1 0.8
2015-Mar-12 07:33N 32°58' W 117°48'1 1.0
2015-Mar-12 06:33N 32°59' W 117°48'1 1.2
2015-Mar-12 05:33N 32°60' W 117°49'2 1.6
2015-Mar-12 04:33N 33°01' W 117°50'4 3.9
2015-Mar-12 03:33N 33°05' W 117°52'4 4.2
2015-Mar-12 02:33N 33°08' W 117°55'1 1.4
2015-Mar-12 01:33N 33°08' W 117°57'5 5.0
2015-Mar-12 00:33N 33°04' W 117°52'9 9.1
2015-Mar-11 23:33N 33°03' W 117°42'1 1.1
2015-Mar-11 22:33N 33°02' W 117°41'0 0.4
2015-Mar-11 21:33N 33°02' W 117°41'0 0.3
2015-Mar-11 20:33N 33°03' W 117°41'0 0.2
2015-Mar-11 19:33N 33°03' W 117°41'0 0.3
2015-Mar-11 18:33N 33°03' W 117°42'0 0.3
2015-Mar-11 17:33N 33°03' W 117°42'0 0.3
2015-Mar-11 16:33N 33°03' W 117°42'0 0.4
2015-Mar-11 15:33N 33°03' W 117°43'0 0.3
2015-Mar-11 14:33N 33°04' W 117°43'0 0.4
2015-Mar-11 13:33N 33°04' W 117°43'0 0.4
2015-Mar-11 12:33N 33°04' W 117°44'0 0.4
2015-Mar-11 11:33N 33°04' W 117°44'0 0.4
2015-Mar-11 10:33N 33°04' W 117°45'0 0.4
2015-Mar-11 09:33N 33°04' W 117°45'0 0.3
2015-Mar-11 08:33N 33°04' W 117°45'0 0.3
2015-Mar-11 07:33N 33°04' W 117°46'0 0.3
2015-Mar-11 06:33N 33°04' W 117°46'0 0.3
2015-Mar-11 05:33N 33°04' W 117°46'0 0.3
2015-Mar-11 04:33N 33°04' W 117°47'0 0.4
2015-Mar-11 03:33N 33°04' W 117°47'0 0.4
2015-Mar-11 02:33N 33°04' W 117°48'1 0.6
2015-Mar-11 01:33N 33°04' W 117°48'1 0.7
2015-Mar-11 00:33N 33°04' W 117°49'1 0.8
2015-Mar-10 23:33N 33°04' W 117°50'1 0.9
2015-Mar-10 22:33N 33°05' W 117°51'1 0.9
2015-Mar-10 21:33N 33°05' W 117°52'1 0.9
2015-Mar-10 20:33N 33°05' W 117°53'1 0.8
2015-Mar-10 19:33N 33°05' W 117°54'1 0.6
2015-Mar-10 18:33N 33°05' W 117°55'0 0.4
2015-Mar-10 17:33N 33°05' W 117°55'0 0.2
2015-Mar-10 16:33N 33°05' W 117°56'0 0.2
2015-Mar-10 15:33N 33°05' W 117°56'0 0.2
2015-Mar-10 14:32N 33°05' W 117°56'0 0.3
2015-Mar-10 13:33N 33°05' W 117°56'0 0.3
2015-Mar-10 12:33N 33°06' W 117°56'0 0.4
2015-Mar-10 11:33N 33°06' W 117°57'1 0.5
2015-Mar-10 10:33N 33°06' W 117°57'1 0.6
2015-Mar-10 09:33N 33°07' W 117°57'1 0.7
2015-Mar-10 08:32N 33°07' W 117°58'1 0.6
2015-Mar-10 07:33N 33°07' W 117°59'1 0.6
2015-Mar-10 06:33N 33°08' W 117°59'0 0.5
2015-Mar-10 05:33N 33°08' W 117°60'0 0.3
2015-Mar-10 04:33N 33°08' W 117°60'1 1.5
2015-Mar-10 03:33N 33°08' W 117°58'7 7.2
2015-Mar-10 02:33N 33°08' W 117°50'3 2.6
2015-Mar-10 01:33N 33°08' W 117°46'1 0.7
2015-Mar-10 00:33N 33°09' W 117°47'1 0.8
2015-Mar-09 23:33N 33°09' W 117°48'1 0.9
2015-Mar-09 22:33N 33°09' W 117°49'1 0.9
2015-Mar-09 21:33N 33°09' W 117°50'1 1.0
2015-Mar-09 20:33N 33°09' W 117°51'1 0.9
2015-Mar-09 19:33N 33°09' W 117°52'1 0.8
2015-Mar-09 18:33N 33°09' W 117°53'1 0.8
2015-Mar-09 17:33N 33°09' W 117°54'1 0.6
2015-Mar-09 16:33N 33°09' W 117°55'1 0.6
2015-Mar-09 15:33N 33°09' W 117°56'0 0.5
2015-Mar-09 14:33N 33°09' W 117°56'0 0.3
2015-Mar-09 13:31N 33°09' W 117°56'1 1.0
2015-Mar-09 12:33N 33°09' W 117°55'4 4.1
2015-Mar-09 11:33N 33°06' W 117°52'1 1.3
2015-Mar-09 10:33N 33°05' W 117°51'1 1.0
2015-Mar-09 09:33N 33°04' W 117°51'1 1.4
2015-Mar-09 08:33N 33°03' W 117°50'1 1.4
2015-Mar-09 07:33N 33°02' W 117°50'1 1.4
2015-Mar-09 06:33N 33°00' W 117°50'1 0.9
2015-Mar-09 05:33N 32°59' W 117°49'1 1.2
2015-Mar-09 04:33N 32°58' W 117°48'1 1.0
2015-Mar-09 03:33N 32°58' W 117°48'0 0.3
2015-Mar-09 02:33N 32°57' W 117°48'1 0.6
2015-Mar-09 01:33N 32°57' W 117°48'1 0.7
2015-Mar-09 00:33N 32°57' W 117°49'1 1.1
2015-Mar-08 23:33N 32°58' W 117°50'1 1.3
2015-Mar-08 22:33N 32°59' W 117°50'2 2.0
2015-Mar-08 21:32N 33°01' W 117°52'3 3.6
2015-Mar-08 20:33N 33°04' W 117°54'4 4.4
2015-Mar-08 19:33N 33°08' W 117°57'1 1.1
2015-Mar-08 18:33N 33°09' W 117°57'4 4.3
2015-Mar-08 17:33N 33°06' W 117°52'1 1.3
2015-Mar-08 16:33N 33°05' W 117°52'1 1.1
2015-Mar-08 15:33N 33°04' W 117°51'1 1.2
2015-Mar-08 14:33N 33°03' W 117°51'1 0.9
2015-Mar-08 13:33N 33°02' W 117°50'1 1.0
2015-Mar-08 12:33N 33°01' W 117°50'1 1.0
2015-Mar-08 11:33N 33°00' W 117°50'1 0.9
2015-Mar-08 10:33N 32°59' W 117°49'1 0.9
2015-Mar-08 09:33N 32°59' W 117°49'1 1.0
2015-Mar-08 08:33N 32°58' W 117°49'1 0.9
2015-Mar-08 07:33N 32°57' W 117°49'1 0.6
2015-Mar-08 06:33N 32°57' W 117°50'1 0.8
2015-Mar-08 05:33N 32°58' W 117°50'1 0.9
2015-Mar-08 04:33N 32°59' W 117°50'1 1.2
2015-Mar-08 03:33N 33°00' W 117°50'1 1.1
2015-Mar-08 02:33N 33°01' W 117°51'1 1.3
2015-Mar-08 01:33N 33°02' W 117°51'3 3.5
2015-Mar-08 00:33N 33°06' W 117°52'4 4.2
2015-Mar-07 23:33N 33°09' W 117°54'1 1.5
2015-Mar-07 22:33N 33°10' W 117°56'1 0.7
2015-Mar-07 21:33N 33°10' W 117°57'1 1.4
2015-Mar-07 20:33N 33°09' W 117°58'6 5.8
2015-Mar-07 19:33N 33°03' W 117°56'1212.3
2015-Mar-07 18:33N 32°51' W 117°52'1313.3
2015-Mar-07 17:33N 32°39' W 117°48'1312.8
2015-Mar-07 16:33N 32°26' W 117°47'1313.3
2015-Mar-07 15:33N 32°14' W 117°53'1312.7
2015-Mar-07 14:33N 32°02' W 117°59'1111.2
2015-Mar-07 13:33N 31°52' W 118°04'1212.2
2015-Mar-07 12:33N 31°40' W 118°10'1413.7
2015-Mar-07 11:33N 31°28' W 118°17'1413.6
2015-Mar-07 10:33N 31°15' W 118°23'1413.5
2015-Mar-07 09:33N 31°03' W 118°29'1413.4
2015-Mar-07 08:31N 30°56' W 118°43'4314.3
2015-Mar-07 05:29N 30°47' W 119°32'  

Dump ship's entire track history